createdAt,value
2022-10-17T00:00:00.304Z,59.9
2022-10-17T00:01:00.293Z,59.9
2022-10-17T00:02:00.311Z,60.0
2022-10-17T00:03:00.536Z,60.0
2022-10-17T00:04:00.341Z,59.9
2022-10-17T00:05:00.349Z,60.0
2022-10-17T00:06:00.322Z,60.2
2022-10-17T00:07:00.351Z,60.2
2022-10-17T00:08:00.334Z,60.3
2022-10-17T00:09:00.502Z,60.4
2022-10-17T00:10:00.537Z,60.6
2022-10-17T00:11:00.340Z,60.3
2022-10-17T00:12:00.334Z,60.4
2022-10-17T00:13:00.299Z,60.2
2022-10-17T00:14:00.308Z,60.5
2022-10-17T00:15:00.396Z,60.3
2022-10-17T00:16:00.275Z,60.1
2022-10-17T00:17:00.289Z,59.9
2022-10-17T00:18:00.284Z,60.0
2022-10-17T00:19:00.279Z,60.1
2022-10-17T00:20:00.881Z,60.4
2022-10-17T00:21:00.313Z,60.3
2022-10-17T00:22:00.280Z,59.9
2022-10-17T00:23:00.311Z,59.6
2022-10-17T00:24:00.311Z,59.7
2022-10-17T00:25:00.410Z,59.9
2022-10-17T00:26:00.420Z,59.5
2022-10-17T00:27:00.304Z,59.3
2022-10-17T00:28:00.279Z,59.2
2022-10-17T00:29:00.350Z,59.0
2022-10-17T00:30:00.345Z,59.1
2022-10-17T00:31:00.297Z,59.1
2022-10-17T00:32:00.448Z,59.0
2022-10-17T00:33:00.347Z,58.9
2022-10-17T00:34:00.308Z,58.9
2022-10-17T00:35:00.289Z,59.1
2022-10-17T00:36:00.291Z,58.9
2022-10-17T00:37:00.319Z,58.7
2022-10-17T00:38:00.446Z,58.7
2022-10-17T00:39:00.288Z,58.7
2022-10-17T00:40:00.482Z,59.0
2022-10-17T00:41:00.328Z,59.0
2022-10-17T00:42:00.320Z,59.3
2022-10-17T00:43:00.315Z,59.1
2022-10-17T00:44:00.396Z,59.3
2022-10-17T00:45:00.304Z,59.3
2022-10-17T00:46:00.289Z,59.4
2022-10-17T00:47:00.286Z,59.3
2022-10-17T00:48:00.319Z,59.5
2022-10-17T00:49:00.297Z,59.3
2022-10-17T00:51:00.277Z,59.8
2022-10-17T00:52:00.309Z,59.3
2022-10-17T00:53:00.295Z,59.5
2022-10-17T00:54:00.295Z,60.1
2022-10-17T00:55:00.353Z,59.9
2022-10-17T00:56:00.420Z,60.1
2022-10-17T00:57:00.301Z,59.9
2022-10-17T00:58:00.293Z,60.1
2022-10-17T00:59:00.331Z,60.0
2022-10-17T01:00:00.323Z,60.1
2022-10-17T01:01:00.426Z,60.0
2022-10-17T01:02:00.451Z,60.2
2022-10-17T01:03:00.368Z,60.1
2022-10-17T01:04:00.354Z,60.6
2022-10-17T01:05:00.337Z,60.4
2022-10-17T01:06:00.357Z,61.2
2022-10-17T01:07:00.293Z,61.1
2022-10-17T01:08:00.473Z,61.6
2022-10-17T01:09:00.310Z,61.1
2022-10-17T01:10:00.504Z,60.7
2022-10-17T01:11:00.312Z,60.7
2022-10-17T01:12:00.296Z,60.2
2022-10-17T01:13:00.274Z,60.7
2022-10-17T01:14:00.432Z,60.3
2022-10-17T01:15:00.305Z,60.3
2022-10-17T01:16:00.309Z,60.3
2022-10-17T01:17:00.271Z,60.7
2022-10-17T01:18:00.286Z,60.7
2022-10-17T01:19:00.287Z,60.8
2022-10-17T01:20:00.451Z,60.6
2022-10-17T01:21:00.308Z,60.5
2022-10-17T01:22:00.288Z,60.6
2022-10-17T01:23:00.290Z,61.3
2022-10-17T01:24:00.344Z,61.3
2022-10-17T01:25:00.459Z,61.0
2022-10-17T01:26:00.510Z,60.9
2022-10-17T01:27:00.277Z,61.3
2022-10-17T01:28:00.293Z,61.2
2022-10-17T01:29:00.290Z,61.6
2022-10-17T01:30:00.315Z,62.3
2022-10-17T01:31:00.345Z,61.8
2022-10-17T01:32:00.452Z,62.0
2022-10-17T01:33:00.291Z,62.0
2022-10-17T01:34:00.274Z,61.8
2022-10-17T01:35:00.303Z,61.2
2022-10-17T01:36:03.373Z,61.2
2022-10-17T01:37:00.362Z,61.7
2022-10-17T01:38:00.608Z,61.5
2022-10-17T01:39:00.357Z,61.2
2022-10-17T01:40:00.498Z,61.9
2022-10-17T01:41:00.292Z,62.6
2022-10-17T01:42:00.292Z,61.1
2022-10-17T01:43:00.327Z,60.7
2022-10-17T01:44:00.427Z,60.8
2022-10-17T01:45:00.429Z,60.7
2022-10-17T01:46:00.302Z,60.4
2022-10-17T01:47:00.316Z,60.3
2022-10-17T01:48:00.281Z,60.0
2022-10-17T01:49:00.304Z,60.3
2022-10-17T01:50:00.665Z,60.5
2022-10-17T01:51:00.276Z,60.4
2022-10-17T01:52:00.288Z,60.4
2022-10-17T01:53:00.290Z,60.7
2022-10-17T01:54:00.293Z,60.4
2022-10-17T01:55:00.487Z,60.6
2022-10-17T01:56:00.477Z,60.4
2022-10-17T01:57:00.278Z,60.9
2022-10-17T01:58:00.295Z,61.4
2022-10-17T01:59:00.288Z,61.7
2022-10-17T02:00:00.335Z,62.2
2022-10-17T02:01:00.313Z,61.2
2022-10-17T02:02:00.442Z,61.4
2022-10-17T02:03:00.331Z,60.8
2022-10-17T02:04:00.288Z,60.8
2022-10-17T02:06:00.329Z,60.5
2022-10-17T02:07:00.290Z,61.0
2022-10-17T02:08:00.508Z,60.6
2022-10-17T02:09:00.334Z,62.6
2022-10-17T02:10:00.295Z,60.9
2022-10-17T02:11:00.527Z,61.1
2022-10-17T02:12:00.325Z,60.4
2022-10-17T02:13:00.310Z,60.2
2022-10-17T02:14:00.614Z,60.0
2022-10-17T02:15:00.293Z,60.4
2022-10-17T02:16:00.468Z,60.6
2022-10-17T02:17:00.402Z,60.9
2022-10-17T02:18:00.380Z,60.1
2022-10-17T02:19:00.293Z,60.0
2022-10-17T02:20:00.743Z,60.4
2022-10-17T02:21:00.329Z,60.9
2022-10-17T02:22:00.289Z,59.0
2022-10-17T02:23:00.283Z,59.1
2022-10-17T02:24:00.294Z,59.0
2022-10-17T02:25:00.278Z,59.2
2022-10-17T02:26:01.882Z,59.0
2022-10-17T02:27:00.292Z,59.4
2022-10-17T02:28:00.277Z,59.4
2022-10-17T02:29:00.375Z,59.2
2022-10-17T02:30:00.303Z,59.6
2022-10-17T02:31:00.293Z,59.7
2022-10-17T02:32:00.445Z,59.5
2022-10-17T02:33:00.274Z,59.5
2022-10-17T02:34:00.299Z,60.0
2022-10-17T02:35:00.293Z,60.2
2022-10-17T02:36:00.298Z,60.4
2022-10-17T02:37:00.278Z,60.3
2022-10-17T02:38:00.518Z,60.4
2022-10-17T02:39:00.306Z,60.1
2022-10-17T02:40:00.300Z,59.9
2022-10-17T02:41:00.290Z,60.6
2022-10-17T02:42:00.450Z,60.0
2022-10-17T02:43:00.322Z,60.4
2022-10-17T02:44:02.450Z,60.1
2022-10-17T02:45:00.341Z,60.3
2022-10-17T02:46:00.354Z,60.0
2022-10-17T02:47:00.318Z,60.0
2022-10-17T02:48:00.568Z,60.1
2022-10-17T02:49:00.312Z,60.3
2022-10-17T02:50:00.519Z,60.5
2022-10-17T02:51:00.302Z,60.6
2022-10-17T02:52:00.312Z,60.7
2022-10-17T02:53:00.307Z,60.9
2022-10-17T02:54:00.290Z,60.7
2022-10-17T02:55:00.325Z,60.8
2022-10-17T02:56:00.746Z,60.7
2022-10-17T02:57:00.512Z,60.9
2022-10-17T02:58:00.290Z,60.7
2022-10-17T02:59:00.306Z,60.7
2022-10-17T03:00:00.307Z,60.9
2022-10-17T03:01:00.339Z,60.7
2022-10-17T03:02:00.468Z,60.9
2022-10-17T03:03:00.276Z,60.7
2022-10-17T03:04:00.281Z,60.9
2022-10-17T03:05:00.301Z,61.1
2022-10-17T03:06:00.375Z,61.2
2022-10-17T03:07:00.337Z,61.4
2022-10-17T03:08:00.461Z,61.0
2022-10-17T03:09:00.369Z,61.2
2022-10-17T03:10:00.309Z,61.3
2022-10-17T03:11:00.283Z,61.4
2022-10-17T03:12:00.418Z,61.4
2022-10-17T03:13:00.298Z,62.1
2022-10-17T03:14:00.467Z,62.2
2022-10-17T03:15:00.297Z,62.0
2022-10-17T03:16:00.308Z,61.9
2022-10-17T03:17:00.311Z,62.4
2022-10-17T03:18:00.277Z,61.5
2022-10-17T03:19:00.281Z,61.1
2022-10-17T03:20:00.441Z,61.0
2022-10-17T03:21:00.297Z,61.0
2022-10-17T03:22:00.298Z,61.2
2022-10-17T03:23:00.299Z,60.9
2022-10-17T03:24:00.279Z,60.9
2022-10-17T03:25:00.310Z,60.5
2022-10-17T03:26:00.458Z,60.5
2022-10-17T03:27:00.428Z,60.6
2022-10-17T03:28:00.294Z,60.5
2022-10-17T03:29:00.361Z,60.4
2022-10-17T03:30:00.283Z,60.6
2022-10-17T03:31:00.306Z,60.6
2022-10-17T03:32:00.448Z,60.6
2022-10-17T03:33:00.346Z,60.7
2022-10-17T03:34:00.313Z,60.7
2022-10-17T03:35:00.329Z,60.7
2022-10-17T03:36:00.361Z,60.8
2022-10-17T03:37:00.298Z,60.9
2022-10-17T03:38:00.464Z,60.9
2022-10-17T03:39:00.296Z,61.0
2022-10-17T03:40:00.298Z,61.0
2022-10-17T03:41:00.312Z,61.0
2022-10-17T03:42:00.431Z,60.7
2022-10-17T03:43:00.324Z,60.8
2022-10-17T03:44:00.470Z,60.9
2022-10-17T03:45:00.307Z,61.2
2022-10-17T03:46:00.329Z,60.8
2022-10-17T03:47:00.290Z,60.5
2022-10-17T03:48:00.291Z,60.0
2022-10-17T03:49:00.306Z,60.0
2022-10-17T03:50:00.471Z,59.9
2022-10-17T03:51:00.332Z,60.1
2022-10-17T03:52:00.375Z,60.1
2022-10-17T03:53:00.299Z,60.1
2022-10-17T03:54:00.389Z,60.0
2022-10-17T03:55:00.319Z,60.0
2022-10-17T03:56:00.495Z,60.1
2022-10-17T03:57:00.447Z,60.1
2022-10-17T03:58:00.293Z,60.2
2022-10-17T03:59:00.280Z,60.3
2022-10-17T04:00:00.314Z,60.5
2022-10-17T04:01:00.319Z,60.4
2022-10-17T04:02:00.382Z,60.3
2022-10-17T04:03:00.364Z,60.4
2022-10-17T04:04:00.475Z,60.4
2022-10-17T04:05:00.441Z,60.4
2022-10-17T04:06:00.415Z,60.3
2022-10-17T04:07:00.420Z,60.3
2022-10-17T04:08:03.881Z,60.4
2022-10-17T04:09:00.363Z,60.4
2022-10-17T04:10:00.345Z,60.2
2022-10-17T04:11:00.289Z,60.0
2022-10-17T04:12:00.428Z,60.0
2022-10-17T04:13:00.304Z,59.8
2022-10-17T04:14:00.440Z,59.9
2022-10-17T04:15:00.310Z,60.0
2022-10-17T04:16:00.297Z,60.2
2022-10-17T04:17:00.289Z,60.2
2022-10-17T04:18:00.317Z,60.5
2022-10-17T04:19:00.309Z,60.4
2022-10-17T04:20:00.421Z,60.5
2022-10-17T04:21:00.313Z,60.2
2022-10-17T04:22:00.295Z,60.2
2022-10-17T04:23:00.274Z,60.2
2022-10-17T04:24:00.318Z,60.1
2022-10-17T04:25:00.288Z,60.1
2022-10-17T04:26:00.442Z,60.1
2022-10-17T04:27:00.284Z,60.1
2022-10-17T04:28:00.382Z,60.1
2022-10-17T04:29:00.306Z,60.0
2022-10-17T04:30:00.288Z,59.7
2022-10-17T04:31:00.289Z,59.6
2022-10-17T04:32:00.513Z,60.0
2022-10-17T04:33:00.304Z,60.0
2022-10-17T04:34:00.291Z,59.9
2022-10-17T04:35:00.274Z,59.8
2022-10-17T04:36:00.286Z,59.7
2022-10-17T04:37:00.293Z,59.3
2022-10-17T04:38:00.417Z,59.1
2022-10-17T04:39:00.332Z,59.2
2022-10-17T04:40:00.286Z,59.3
2022-10-17T04:41:00.292Z,59.4
2022-10-17T04:42:00.288Z,59.4
2022-10-17T04:43:00.441Z,59.6
2022-10-17T04:44:00.483Z,59.8
2022-10-17T04:45:00.308Z,60.1
2022-10-17T04:46:00.294Z,60.1
2022-10-17T04:47:00.311Z,59.8
2022-10-17T04:48:00.313Z,59.9
2022-10-17T04:49:00.318Z,59.9
2022-10-17T04:50:00.456Z,60.2
2022-10-17T04:51:00.283Z,60.2
2022-10-17T04:52:00.316Z,60.6
2022-10-17T04:53:00.327Z,60.6
2022-10-17T04:54:00.312Z,60.4
2022-10-17T04:55:00.368Z,60.3
2022-10-17T04:56:00.420Z,60.5
2022-10-17T04:57:00.292Z,60.5
2022-10-17T04:58:00.532Z,60.5
2022-10-17T04:59:00.292Z,60.5
2022-10-17T05:00:00.425Z,60.4
2022-10-17T05:01:00.314Z,60.5
2022-10-17T05:02:00.370Z,60.5
2022-10-17T05:03:00.276Z,60.7
2022-10-17T05:04:00.291Z,60.6
2022-10-17T05:05:00.279Z,60.5
2022-10-17T05:06:00.283Z,60.6
2022-10-17T05:07:00.309Z,60.6
2022-10-17T05:08:00.441Z,60.5
2022-10-17T05:09:00.316Z,60.4
2022-10-17T05:10:00.358Z,59.7
2022-10-17T05:12:00.334Z,59.0
2022-10-17T05:13:00.488Z,58.6
2022-10-17T05:14:00.726Z,54.9
2022-10-17T05:15:00.321Z,49.0
2022-10-17T05:16:00.279Z,45.6
2022-10-17T05:17:00.293Z,43.9
2022-10-17T05:18:00.279Z,41.5
2022-10-17T05:19:00.294Z,40.9
2022-10-17T05:20:00.399Z,40.1
2022-10-17T05:21:00.294Z,37.4
2022-10-17T05:22:00.292Z,36.9
2022-10-17T05:23:00.288Z,34.5
2022-10-17T05:24:00.285Z,33.9
2022-10-17T05:25:00.337Z,31.7
2022-10-17T05:26:00.436Z,30.7
2022-10-17T05:27:00.284Z,31.2
2022-10-17T05:28:00.453Z,30.8
2022-10-17T05:29:00.483Z,30.8
2022-10-17T05:30:00.319Z,29.2
2022-10-17T05:31:00.306Z,28.6
2022-10-17T05:33:00.290Z,28.6
2022-10-17T05:34:00.382Z,27.7
2022-10-17T05:35:00.307Z,25.9
2022-10-17T05:36:00.293Z,24.6
2022-10-17T05:37:00.276Z,24.5
2022-10-17T05:38:00.550Z,24.2
2022-10-17T05:39:00.329Z,24.4
2022-10-17T05:40:00.304Z,23.3
2022-10-17T05:41:00.304Z,23.3
2022-10-17T05:42:00.294Z,24.0
2022-10-17T05:43:00.328Z,22.9
2022-10-17T05:44:03.207Z,22.9
2022-10-17T05:45:00.286Z,23.5
2022-10-17T05:46:00.305Z,22.3
2022-10-17T05:47:00.282Z,22.1
2022-10-17T05:48:00.318Z,21.5
2022-10-17T05:49:00.373Z,20.9
2022-10-17T05:50:00.495Z,20.9
2022-10-17T05:51:00.318Z,21.6
2022-10-17T05:52:00.285Z,21.2
2022-10-17T05:53:00.330Z,19.8
2022-10-17T05:54:00.351Z,20.3
2022-10-17T05:55:00.308Z,20.0
2022-10-17T05:56:00.460Z,19.0
2022-10-17T05:57:00.293Z,18.7
2022-10-17T05:58:00.285Z,18.7
2022-10-17T05:59:01.170Z,19.1
2022-10-17T06:00:00.437Z,18.4
2022-10-17T06:01:00.316Z,18.3
2022-10-17T06:02:00.581Z,17.9
2022-10-17T06:03:00.293Z,17.4
2022-10-17T06:04:00.278Z,17.2
2022-10-17T06:05:00.294Z,16.9
2022-10-17T06:06:00.333Z,17.1
2022-10-17T06:07:00.289Z,16.2
2022-10-17T06:08:01.995Z,15.0
2022-10-17T06:09:00.293Z,14.5
2022-10-17T06:10:00.308Z,16.0
2022-10-17T06:11:00.356Z,16.5
2022-10-17T06:12:00.366Z,16.5
2022-10-17T06:13:00.292Z,16.1
2022-10-17T06:14:00.457Z,15.7
2022-10-17T06:15:00.478Z,15.6
2022-10-17T06:16:00.293Z,15.1
2022-10-17T06:17:00.376Z,14.9
2022-10-17T06:18:00.282Z,14.7
2022-10-17T06:19:00.311Z,14.1
2022-10-17T06:20:00.493Z,12.7
2022-10-17T06:21:00.300Z,13.5
2022-10-17T06:22:00.294Z,13.7
2022-10-17T06:23:00.281Z,14.2
2022-10-17T06:24:00.287Z,12.6
2022-10-17T06:25:00.313Z,13.7
2022-10-17T06:26:00.416Z,14.1
2022-10-17T06:27:00.289Z,14.2
2022-10-17T06:28:00.301Z,14.0
2022-10-17T06:29:00.404Z,14.4
2022-10-17T06:30:00.399Z,14.9
2022-10-17T06:31:00.294Z,16.5
2022-10-17T06:32:00.526Z,15.3
2022-10-17T06:33:00.370Z,15.1
2022-10-17T06:34:00.341Z,15.4
2022-10-17T06:35:00.296Z,15.9
2022-10-17T06:36:00.289Z,15.8
2022-10-17T06:37:00.296Z,16.9
2022-10-17T06:38:00.529Z,18.0
2022-10-17T06:39:00.297Z,17.5
2022-10-17T06:40:00.297Z,18.9
2022-10-17T06:41:00.275Z,22.4
2022-10-17T06:42:00.309Z,24.9
2022-10-17T06:43:00.309Z,23.8
2022-10-17T06:44:00.438Z,24.2
2022-10-17T06:45:00.451Z,21.2
2022-10-17T06:46:00.429Z,21.7
2022-10-17T06:47:00.286Z,21.8
2022-10-17T06:48:00.308Z,20.9
2022-10-17T06:49:00.339Z,19.8
2022-10-17T06:50:00.450Z,19.3
2022-10-17T06:51:00.304Z,19.5
2022-10-17T06:52:00.285Z,17.9
2022-10-17T06:53:00.285Z,17.8
2022-10-17T06:54:00.302Z,17.2
2022-10-17T06:55:00.422Z,17.1
2022-10-17T06:56:00.426Z,18.4
2022-10-17T06:57:00.308Z,22.5
2022-10-17T06:58:00.313Z,24.5
2022-10-17T06:59:00.288Z,25.4
2022-10-17T07:00:00.348Z,24.8
2022-10-17T07:01:01.121Z,26.0
2022-10-17T07:02:00.616Z,26.0
2022-10-17T07:03:00.278Z,25.7
2022-10-17T07:04:00.286Z,23.7
2022-10-17T07:05:00.330Z,22.5
2022-10-17T07:06:00.294Z,24.2
2022-10-17T07:07:00.358Z,27.3
2022-10-17T07:08:00.591Z,29.1
2022-10-17T07:09:00.297Z,30.7
2022-10-17T07:10:00.299Z,31.7
2022-10-17T07:11:00.466Z,31.5
2022-10-17T07:12:00.473Z,32.5
2022-10-17T07:13:00.305Z,33.6
2022-10-17T07:14:00.504Z,27.3
2022-10-17T07:15:00.330Z,31.1
2022-10-17T07:16:00.457Z,33.1
2022-10-17T07:17:00.300Z,34.6
2022-10-17T07:18:00.273Z,35.9
2022-10-17T07:19:00.335Z,36.8
2022-10-17T07:20:00.508Z,36.9
2022-10-17T07:21:00.305Z,37.2
2022-10-17T07:22:00.305Z,37.9
2022-10-17T07:23:00.314Z,38.3
2022-10-17T07:24:00.323Z,38.2
2022-10-17T07:25:00.322Z,37.9
2022-10-17T07:26:00.421Z,37.4
2022-10-17T07:27:00.315Z,35.8
2022-10-17T07:28:00.314Z,36.9
2022-10-17T07:29:00.401Z,37.0
2022-10-17T07:30:00.290Z,36.7
2022-10-17T07:31:00.490Z,35.5
2022-10-17T07:32:00.473Z,34.0
2022-10-17T07:33:00.315Z,32.8
2022-10-17T07:34:00.296Z,30.3
2022-10-17T07:35:00.278Z,30.4
2022-10-17T07:36:00.313Z,30.5
2022-10-17T07:37:00.298Z,31.0
2022-10-17T07:38:00.472Z,29.4
2022-10-17T07:39:00.363Z,30.4
2022-10-17T07:40:00.339Z,30.1
2022-10-17T07:41:00.326Z,26.6
2022-10-17T07:42:00.387Z,25.2
2022-10-17T07:43:00.289Z,26.7
2022-10-17T07:44:00.438Z,26.5
2022-10-17T07:45:00.306Z,25.9
2022-10-17T07:46:00.389Z,25.8
2022-10-17T07:47:00.435Z,26.7
2022-10-17T07:48:00.304Z,26.8
2022-10-17T07:49:00.305Z,27.3
2022-10-17T07:50:00.443Z,27.0
2022-10-17T07:51:00.391Z,27.5
2022-10-17T07:52:00.288Z,28.0
2022-10-17T07:53:00.297Z,29.7
2022-10-17T07:54:00.316Z,31.0
2022-10-17T07:55:00.320Z,32.2
2022-10-17T07:56:00.420Z,32.7
2022-10-17T07:57:00.288Z,33.0
2022-10-17T07:58:00.280Z,34.0
2022-10-17T07:59:02.645Z,35.5
2022-10-17T08:00:00.323Z,36.1
2022-10-17T08:01:00.341Z,37.1
2022-10-17T08:02:00.606Z,37.7
2022-10-17T08:03:00.283Z,38.2
2022-10-17T08:04:00.301Z,39.1
2022-10-17T08:05:00.295Z,39.9
2022-10-17T08:06:00.312Z,40.3
2022-10-17T08:07:11.336Z,41.4
2022-10-17T08:08:00.442Z,41.4
2022-10-17T08:09:00.283Z,41.9
2022-10-17T08:10:00.413Z,41.1
2022-10-17T08:11:00.275Z,39.8
2022-10-17T08:12:00.291Z,39.6
2022-10-17T08:13:00.301Z,38.3
2022-10-17T08:14:00.467Z,37.4
2022-10-17T08:15:00.341Z,37.4
2022-10-17T08:16:00.297Z,38.1
2022-10-17T08:17:00.490Z,38.7
2022-10-17T08:18:00.300Z,39.0
2022-10-17T08:19:00.342Z,38.8
2022-10-17T08:20:00.484Z,38.1
2022-10-17T08:21:00.465Z,38.2
2022-10-17T08:22:00.314Z,38.5
2022-10-17T08:23:00.312Z,38.4
2022-10-17T08:24:00.297Z,36.0
2022-10-17T08:25:00.287Z,35.6
2022-10-17T08:26:00.452Z,35.5
2022-10-17T08:27:00.293Z,33.6
2022-10-17T08:28:00.328Z,29.2
2022-10-17T08:29:00.419Z,26.2
2022-10-17T08:30:00.306Z,25.3
2022-10-17T08:31:00.328Z,23.3
2022-10-17T08:32:02.336Z,22.7
2022-10-17T08:33:00.330Z,24.7
2022-10-17T08:34:00.322Z,21.7
2022-10-17T08:35:00.294Z,19.5
2022-10-17T08:36:00.280Z,18.2
2022-10-17T08:37:00.347Z,19.3
2022-10-17T08:38:00.431Z,17.5
2022-10-17T08:39:00.304Z,15.4
2022-10-17T08:40:00.280Z,16.8
2022-10-17T08:41:00.393Z,19.5
2022-10-17T08:42:00.308Z,22.0
2022-10-17T08:43:00.380Z,23.0
2022-10-17T08:44:00.516Z,22.3
2022-10-17T08:45:00.300Z,23.6
2022-10-17T08:46:00.295Z,25.3
2022-10-17T08:47:00.397Z,27.3
2022-10-17T08:48:00.340Z,28.5
2022-10-17T08:49:00.323Z,29.4
2022-10-17T08:50:00.411Z,30.7
2022-10-17T08:51:00.316Z,31.9
2022-10-17T08:52:00.344Z,32.7
2022-10-17T08:53:00.289Z,33.3
2022-10-17T08:54:00.297Z,33.7
2022-10-17T08:55:00.390Z,34.0
2022-10-17T08:56:00.418Z,34.1
2022-10-17T08:57:00.296Z,34.3
2022-10-17T08:58:00.299Z,35.4
2022-10-17T08:59:00.310Z,35.9
2022-10-17T09:00:00.282Z,36.1
2022-10-17T09:01:00.438Z,36.9
2022-10-17T09:02:00.600Z,36.8
2022-10-17T09:03:00.383Z,37.1
2022-10-17T09:04:00.306Z,37.6
2022-10-17T09:05:00.315Z,37.9
2022-10-17T09:06:00.282Z,38.0
2022-10-17T09:07:00.297Z,37.6
2022-10-17T09:08:00.457Z,37.3
2022-10-17T09:09:00.296Z,37.2
2022-10-17T09:10:00.297Z,37.3
2022-10-17T09:11:00.303Z,37.3
2022-10-17T09:12:00.307Z,37.6
2022-10-17T09:13:05.366Z,37.7
2022-10-17T09:14:00.538Z,37.6
2022-10-17T09:17:00.506Z,38.5
2022-10-17T09:18:00.313Z,38.6
2022-10-17T09:19:00.304Z,38.8
2022-10-17T09:20:00.593Z,38.8
2022-10-17T09:21:00.287Z,39.0
2022-10-17T09:22:00.285Z,39.0
2022-10-17T09:23:00.399Z,39.1
2022-10-17T09:24:09.085Z,38.4
2022-10-17T09:25:00.325Z,38.2
2022-10-17T09:26:00.436Z,37.8
2022-10-17T09:27:00.297Z,37.6
2022-10-17T09:28:00.285Z,36.9
2022-10-17T09:29:00.379Z,36.4
2022-10-17T09:30:00.329Z,36.4
2022-10-17T09:31:00.310Z,36.7
2022-10-17T09:32:00.459Z,36.9
2022-10-17T09:33:00.278Z,37.2
2022-10-17T09:34:00.309Z,37.9
2022-10-17T09:35:00.384Z,38.5
2022-10-17T09:36:00.291Z,39.1
2022-10-17T09:37:00.312Z,39.4
2022-10-17T09:38:00.429Z,39.9
2022-10-17T09:39:00.308Z,40.3
2022-10-17T09:40:00.291Z,40.5
2022-10-17T09:41:00.363Z,40.3
2022-10-17T09:42:00.314Z,40.0
2022-10-17T09:43:00.295Z,40.1
2022-10-17T09:44:00.445Z,40.5
2022-10-17T09:45:00.292Z,41.2
2022-10-17T09:46:00.347Z,41.1
2022-10-17T09:47:00.577Z,41.3
2022-10-17T09:48:01.747Z,41.2
2022-10-17T09:49:00.311Z,40.8
2022-10-17T09:50:00.413Z,41.1
2022-10-17T09:51:14.984Z,41.2
2022-10-17T09:52:00.352Z,41.1
2022-10-17T09:53:00.313Z,41.4
2022-10-17T09:54:00.397Z,40.9
2022-10-17T09:55:00.316Z,40.3
2022-10-17T09:56:00.439Z,39.7
2022-10-17T09:57:00.339Z,38.8
2022-10-17T09:58:00.284Z,36.9
2022-10-17T09:59:00.319Z,35.4
2022-10-17T10:00:00.542Z,32.8
2022-10-17T10:01:00.359Z,31.2
2022-10-17T10:02:00.601Z,30.3
2022-10-17T10:03:00.292Z,29.6
2022-10-17T10:04:00.293Z,30.2
2022-10-17T10:05:04.953Z,30.8
2022-10-17T10:06:00.276Z,31.4
2022-10-17T10:07:00.293Z,31.5
2022-10-17T10:08:00.513Z,31.7
2022-10-17T10:09:00.308Z,31.8
2022-10-17T10:10:00.292Z,32.2
2022-10-17T10:11:00.293Z,31.5
2022-10-17T10:12:00.290Z,33.1
2022-10-17T10:13:00.307Z,33.8
2022-10-17T10:14:00.632Z,34.4
2022-10-17T10:15:00.305Z,34.3
2022-10-17T10:16:00.365Z,34.5
2022-10-17T10:17:00.499Z,34.4
2022-10-17T10:18:00.346Z,34.3
2022-10-17T10:19:00.294Z,33.8
2022-10-17T10:20:00.451Z,33.9
2022-10-17T10:21:00.316Z,33.6
2022-10-17T10:22:00.274Z,33.7
2022-10-17T10:23:00.289Z,33.5
2022-10-17T10:24:00.294Z,33.4
2022-10-17T10:25:00.300Z,32.9
2022-10-17T10:26:00.445Z,33.6
2022-10-17T10:27:00.278Z,34.2
2022-10-17T10:28:01.466Z,34.3
2022-10-17T10:29:00.391Z,34.6
2022-10-17T10:30:00.281Z,35.0
2022-10-17T10:32:00.423Z,34.5
2022-10-17T10:34:00.331Z,35.3
2022-10-17T10:35:00.293Z,35.5
2022-10-17T10:36:00.379Z,35.5
2022-10-17T10:37:00.367Z,35.4
2022-10-17T10:38:00.590Z,35.2
2022-10-17T10:39:02.565Z,35.6
2022-10-17T10:40:00.368Z,35.4
2022-10-17T10:41:00.338Z,34.5
2022-10-17T10:42:00.282Z,34.6
2022-10-17T10:43:05.123Z,34.6
2022-10-17T10:44:00.508Z,34.4
2022-10-17T10:45:00.313Z,35.0
2022-10-17T10:46:00.301Z,35.4
2022-10-17T10:47:00.532Z,34.9
2022-10-17T10:48:00.312Z,35.1
2022-10-17T10:49:00.341Z,35.7
2022-10-17T10:50:00.433Z,36.1
2022-10-17T10:51:00.304Z,35.9
2022-10-17T10:52:00.305Z,36.0
2022-10-17T10:53:00.282Z,36.3
2022-10-17T10:54:00.370Z,36.6
2022-10-17T10:55:00.409Z,36.6
2022-10-17T10:56:00.433Z,36.7
2022-10-17T10:57:00.375Z,36.7
2022-10-17T10:58:00.301Z,36.6
2022-10-17T10:59:00.295Z,37.0
2022-10-17T11:00:00.299Z,37.3
2022-10-17T11:01:00.377Z,37.5
2022-10-17T11:02:00.594Z,37.2
2022-10-17T11:03:01.925Z,36.9
2022-10-17T11:04:00.365Z,37.3
2022-10-17T11:05:00.296Z,37.5
2022-10-17T11:06:00.297Z,37.2
2022-10-17T11:07:00.303Z,37.1
2022-10-17T11:08:00.421Z,37.3
2022-10-17T11:09:00.296Z,37.1
2022-10-17T11:10:00.281Z,37.0
2022-10-17T11:11:00.283Z,37.1
2022-10-17T11:12:00.299Z,36.4
2022-10-17T11:13:00.298Z,36.9
2022-10-17T11:14:00.430Z,36.9
2022-10-17T11:15:00.326Z,37.4
2022-10-17T11:16:00.383Z,38.1
2022-10-17T11:17:00.438Z,38.6
2022-10-17T11:18:00.291Z,39.2
2022-10-17T11:19:00.299Z,39.8
2022-10-17T11:20:00.530Z,39.7
2022-10-17T11:21:00.283Z,40.0
2022-10-17T11:22:00.279Z,40.0
2022-10-17T11:23:00.297Z,40.5
2022-10-17T11:24:00.298Z,40.6
2022-10-17T11:25:00.291Z,40.7
2022-10-17T11:26:00.426Z,41.1
2022-10-17T11:27:00.327Z,41.5
2022-10-17T11:28:04.687Z,41.6
2022-10-17T11:29:00.421Z,41.6
2022-10-17T11:30:00.301Z,41.4
2022-10-17T11:31:02.337Z,41.5
2022-10-17T11:32:00.528Z,41.7
2022-10-17T11:33:00.387Z,41.8
2022-10-17T11:34:00.278Z,42.0
2022-10-17T11:35:00.300Z,42.1
2022-10-17T11:36:00.295Z,42.1
2022-10-17T11:37:00.281Z,42.1
2022-10-17T11:38:00.529Z,42.0
2022-10-17T11:39:00.320Z,42.0
2022-10-17T11:40:00.293Z,42.0
2022-10-17T11:41:00.298Z,42.1
2022-10-17T11:42:03.385Z,42.2
2022-10-17T11:43:00.297Z,42.4
2022-10-17T11:44:00.528Z,42.5
2022-10-17T11:45:00.279Z,42.8
2022-10-17T11:46:00.305Z,42.9
2022-10-17T11:47:00.304Z,42.9
2022-10-17T11:48:00.412Z,43.0
2022-10-17T11:49:00.464Z,42.9
2022-10-17T11:51:59.653Z,43.0
2022-10-17T11:52:01.999Z,43.0
2022-10-17T11:53:00.705Z,42.9
2022-10-17T11:54:00.292Z,43.1
2022-10-17T11:55:00.289Z,43.3
2022-10-17T11:56:00.427Z,43.7
2022-10-17T11:57:00.292Z,43.8
2022-10-17T11:58:00.295Z,43.8
2022-10-17T11:59:00.300Z,43.8
2022-10-17T12:00:00.313Z,44.0
2022-10-17T12:01:00.306Z,44.0
2022-10-17T12:02:00.439Z,43.7
2022-10-17T12:03:00.351Z,43.6
2022-10-17T12:04:00.483Z,43.6
2022-10-17T12:05:00.353Z,43.9
2022-10-17T12:06:00.278Z,43.7
2022-10-17T12:07:00.288Z,43.7
2022-10-17T12:08:00.448Z,43.6
2022-10-17T12:09:00.295Z,43.6
2022-10-17T12:10:01.328Z,43.4
2022-10-17T12:11:01.071Z,43.3
2022-10-17T12:12:00.315Z,43.4
2022-10-17T12:13:00.299Z,43.6
2022-10-17T12:14:04.952Z,43.6
2022-10-17T12:15:00.308Z,43.7
2022-10-17T12:16:00.323Z,43.7
2022-10-17T12:17:00.326Z,43.7
2022-10-17T12:18:00.330Z,43.7
2022-10-17T12:19:00.539Z,43.8
2022-10-17T12:20:00.358Z,43.7
2022-10-17T12:21:00.427Z,43.6
2022-10-17T12:22:00.357Z,43.6
2022-10-17T12:23:00.295Z,43.6
2022-10-17T12:24:00.283Z,43.7
2022-10-17T12:25:00.278Z,43.9
2022-10-17T12:26:03.378Z,43.9
2022-10-17T12:27:00.295Z,44.1
2022-10-17T12:28:00.279Z,44.3
2022-10-17T12:29:00.346Z,44.5
2022-10-17T12:30:00.290Z,44.4
2022-10-17T12:31:00.299Z,44.5
2022-10-17T12:32:00.817Z,44.6
2022-10-17T12:33:06.226Z,44.8
2022-10-17T12:34:00.511Z,45.0
2022-10-17T12:35:01.351Z,44.9
2022-10-17T12:36:00.296Z,44.7
2022-10-17T12:37:00.295Z,44.8
2022-10-17T12:38:00.410Z,44.9
2022-10-17T12:39:00.276Z,44.9
2022-10-17T12:40:00.294Z,45.0
2022-10-17T12:41:00.287Z,45.0
2022-10-17T12:42:00.299Z,45.0
2022-10-17T12:43:00.297Z,45.1
2022-10-17T12:44:00.429Z,45.1
2022-10-17T12:45:00.398Z,45.1
2022-10-17T12:46:00.323Z,45.0
2022-10-17T12:47:00.295Z,45.0
2022-10-17T12:48:00.319Z,45.1
2022-10-17T12:49:00.506Z,45.1
2022-10-17T12:50:00.460Z,44.8
2022-10-17T12:51:17.703Z,44.9
2022-10-17T12:52:00.345Z,44.9
2022-10-17T12:53:00.594Z,44.9
2022-10-17T12:54:00.477Z,45.0
2022-10-17T12:55:10.889Z,45.1
2022-10-17T12:56:00.482Z,45.2
2022-10-17T12:57:00.283Z,45.2
2022-10-17T12:58:00.316Z,45.0
2022-10-17T12:59:00.375Z,44.9
2022-10-17T13:00:00.344Z,44.8
2022-10-17T13:01:23.023Z,44.7
2022-10-17T13:02:00.546Z,44.6
2022-10-17T13:03:00.278Z,44.6
2022-10-17T13:04:00.351Z,44.7
2022-10-17T13:05:00.448Z,44.6
2022-10-17T13:06:00.285Z,44.6
2022-10-17T13:07:00.298Z,44.6
2022-10-17T13:08:00.546Z,44.5
2022-10-17T13:09:03.808Z,44.6
2022-10-17T13:10:00.306Z,44.8
2022-10-17T13:11:00.290Z,45.1
2022-10-17T13:12:00.312Z,45.8
2022-10-17T13:13:00.291Z,46.3
2022-10-17T13:14:00.479Z,46.8
2022-10-17T13:15:00.279Z,47.0
2022-10-17T13:16:00.387Z,47.9
2022-10-17T13:17:00.281Z,48.2
2022-10-17T13:18:00.285Z,49.0
2022-10-17T13:19:00.321Z,49.4
2022-10-17T13:20:00.515Z,49.4
2022-10-17T13:21:00.495Z,49.3
2022-10-17T13:22:06.061Z,49.3
2022-10-17T13:23:00.312Z,49.4
2022-10-17T13:24:00.280Z,49.8
2022-10-17T13:25:00.324Z,50.1
2022-10-17T13:26:00.463Z,50.5
2022-10-17T13:27:00.296Z,50.6